sensor_id;sensor_type;location;lat;lon;timestamp;temperature;humidity
16301;DHT22;8258;51.020;4.248;2022-07-22T00:01:10;14.60;99.90
16301;DHT22;8258;51.020;4.248;2022-07-22T00:03:37;14.60;99.90
16301;DHT22;8258;51.020;4.248;2022-07-22T00:06:06;14.50;99.90
16301;DHT22;8258;51.020;4.248;2022-07-22T00:08:33;14.50;99.90
16301;DHT22;8258;51.020;4.248;2022-07-22T00:11:00;14.40;99.90
16301;DHT22;8258;51.020;4.248;2022-07-22T00:13:26;14.40;99.90
16301;DHT22;8258;51.020;4.248;2022-07-22T00:15:53;14.40;99.90
16301;DHT22;8258;51.020;4.248;2022-07-22T00:18:20;14.50;99.90
16301;DHT22;8258;51.020;4.248;2022-07-22T00:20:47;14.40;99.90
16301;DHT22;8258;51.020;4.248;2022-07-22T00:23:16;14.40;99.90
16301;DHT22;8258;51.020;4.248;2022-07-22T00:25:43;14.30;99.90
16301;DHT22;8258;51.020;4.248;2022-07-22T00:28:10;14.30;99.90
16301;DHT22;8258;51.020;4.248;2022-07-22T00:30:36;14.30;99.90
16301;DHT22;8258;51.020;4.248;2022-07-22T00:33:03;14.30;99.90
16301;DHT22;8258;51.020;4.248;2022-07-22T00:35:30;14.30;99.90
16301;DHT22;8258;51.020;4.248;2022-07-22T00:37:57;14.30;99.90
16301;DHT22;8258;51.020;4.248;2022-07-22T00:40:25;14.30;99.90
16301;DHT22;8258;51.020;4.248;2022-07-22T00:42:52;14.20;99.90
16301;DHT22;8258;51.020;4.248;2022-07-22T00:45:19;14.10;99.90
16301;DHT22;8258;51.020;4.248;2022-07-22T00:47:46;14.00;99.90
16301;DHT22;8258;51.020;4.248;2022-07-22T00:50:13;14.10;99.90
16301;DHT22;8258;51.020;4.248;2022-07-22T00:52:43;14.10;99.90
16301;DHT22;8258;51.020;4.248;2022-07-22T00:55:10;14.00;99.90
16301;DHT22;8258;51.020;4.248;2022-07-22T00:57:39;14.00;99.90
16301;DHT22;8258;51.020;4.248;2022-07-22T01:00:08;14.00;99.90
16301;DHT22;8258;51.020;4.248;2022-07-22T01:02:36;13.90;99.90
16301;DHT22;8258;51.020;4.248;2022-07-22T01:05:04;13.80;99.90
16301;DHT22;8258;51.020;4.248;2022-07-22T01:07:31;13.80;99.90
16301;DHT22;8258;51.020;4.248;2022-07-22T01:09:58;13.90;99.90
16301;DHT22;8258;51.020;4.248;2022-07-22T01:12:25;13.90;99.90
16301;DHT22;8258;51.020;4.248;2022-07-22T01:14:53;13.90;99.90
16301;DHT22;8258;51.020;4.248;2022-07-22T01:17:20;13.90;99.90
16301;DHT22;8258;51.020;4.248;2022-07-22T01:19:47;13.90;99.90
16301;DHT22;8258;51.020;4.248;2022-07-22T01:22:16;13.90;99.90
16301;DHT22;8258;51.020;4.248;2022-07-22T01:24:43;13.80;99.90
16301;DHT22;8258;51.020;4.248;2022-07-22T01:27:10;13.80;99.90
16301;DHT22;8258;51.020;4.248;2022-07-22T01:29:37;13.80;99.90
16301;DHT22;8258;51.020;4.248;2022-07-22T01:32:04;13.80;99.90
16301;DHT22;8258;51.020;4.248;2022-07-22T01:34:31;13.80;99.90
16301;DHT22;8258;51.020;4.248;2022-07-22T01:36:58;13.80;99.90
16301;DHT22;8258;51.020;4.248;2022-07-22T01:39:26;13.80;99.90
16301;DHT22;8258;51.020;4.248;2022-07-22T01:41:53;13.80;99.90
16301;DHT22;8258;51.020;4.248;2022-07-22T01:44:20;13.70;99.90
16301;DHT22;8258;51.020;4.248;2022-07-22T01:46:47;13.70;99.90
16301;DHT22;8258;51.020;4.248;2022-07-22T01:49:15;13.60;99.90
16301;DHT22;8258;51.020;4.248;2022-07-22T01:51:43;13.60;99.90
16301;DHT22;8258;51.020;4.248;2022-07-22T01:54:09;13.50;99.90
16301;DHT22;8258;51.020;4.248;2022-07-22T01:56:38;13.50;99.90
16301;DHT22;8258;51.020;4.248;2022-07-22T01:59:05;13.60;99.90
16301;DHT22;8258;51.020;4.248;2022-07-22T02:01:32;13.60;99.90
16301;DHT22;8258;51.020;4.248;2022-07-22T02:03:59;13.60;99.90
16301;DHT22;8258;51.020;4.248;2022-07-22T02:06:26;13.50;99.90
16301;DHT22;8258;51.020;4.248;2022-07-22T02:08:53;13.40;99.90
16301;DHT22;8258;51.020;4.248;2022-07-22T02:11:20;13.40;99.90
16301;DHT22;8258;51.020;4.248;2022-07-22T02:13:48;13.40;99.90
16301;DHT22;8258;51.020;4.248;2022-07-22T02:16:15;13.40;99.90
16301;DHT22;8258;51.020;4.248;2022-07-22T02:18:43;13.40;99.90
16301;DHT22;8258;51.020;4.248;2022-07-22T02:21:10;13.30;99.90
16301;DHT22;8258;51.020;4.248;2022-07-22T02:23:36;13.30;99.90
16301;DHT22;8258;51.020;4.248;2022-07-22T02:26:03;13.30;99.90
16301;DHT22;8258;51.020;4.248;2022-07-22T02:28:31;13.20;99.90
16301;DHT22;8258;51.020;4.248;2022-07-22T02:30:59;13.20;99.90
16301;DHT22;8258;51.020;4.248;2022-07-22T02:33:26;13.20;99.90
16301;DHT22;8258;51.020;4.248;2022-07-22T02:35:55;13.20;99.90
16301;DHT22;8258;51.020;4.248;2022-07-22T02:38:22;13.10;99.90
16301;DHT22;8258;51.020;4.248;2022-07-22T02:40:48;13.00;99.90
16301;DHT22;8258;51.020;4.248;2022-07-22T02:43:15;13.00;99.90
16301;DHT22;8258;51.020;4.248;2022-07-22T02:45:42;12.90;99.90
16301;DHT22;8258;51.020;4.248;2022-07-22T02:48:10;12.90;99.90
16301;DHT22;8258;51.020;4.248;2022-07-22T02:50:37;12.90;99.90
16301;DHT22;8258;51.020;4.248;2022-07-22T02:53:04;13.00;99.90
16301;DHT22;8258;51.020;4.248;2022-07-22T02:55:31;13.00;99.90
16301;DHT22;8258;51.020;4.248;2022-07-22T02:58:04;13.00;99.90
16301;DHT22;8258;51.020;4.248;2022-07-22T03:00:31;13.00;99.90
16301;DHT22;8258;51.020;4.248;2022-07-22T03:02:58;13.10;99.90
16301;DHT22;8258;51.020;4.248;2022-07-22T03:05:27;13.10;99.90
16301;DHT22;8258;51.020;4.248;2022-07-22T03:07:53;13.00;99.90
16301;DHT22;8258;51.020;4.248;2022-07-22T03:10:20;12.90;99.90
16301;DHT22;8258;51.020;4.248;2022-07-22T03:12:47;12.90;99.90
16301;DHT22;8258;51.020;4.248;2022-07-22T03:15:14;12.90;99.90
16301;DHT22;8258;51.020;4.248;2022-07-22T03:17:41;12.90;99.90
16301;DHT22;8258;51.020;4.248;2022-07-22T03:20:09;12.90;99.90
16301;DHT22;8258;51.020;4.248;2022-07-22T03:22:38;12.90;99.90
16301;DHT22;8258;51.020;4.248;2022-07-22T03:25:05;12.90;99.90
16301;DHT22;8258;51.020;4.248;2022-07-22T03:27:32;12.90;99.90
16301;DHT22;8258;51.020;4.248;2022-07-22T03:29:59;12.90;99.90
16301;DHT22;8258;51.020;4.248;2022-07-22T03:32:26;12.90;99.90
16301;DHT22;8258;51.020;4.248;2022-07-22T03:34:53;12.90;99.90
16301;DHT22;8258;51.020;4.248;2022-07-22T03:37:20;12.90;99.90
16301;DHT22;8258;51.020;4.248;2022-07-22T03:39:49;12.70;99.90
16301;DHT22;8258;51.020;4.248;2022-07-22T03:42:16;12.80;99.90
16301;DHT22;8258;51.020;4.248;2022-07-22T03:44:42;12.80;99.90
16301;DHT22;8258;51.020;4.248;2022-07-22T03:47:09;12.70;99.90
16301;DHT22;8258;51.020;4.248;2022-07-22T03:49:36;12.70;99.90
16301;DHT22;8258;51.020;4.248;2022-07-22T03:52:03;12.60;99.90
16301;DHT22;8258;51.020;4.248;2022-07-22T03:54:30;12.70;99.90
16301;DHT22;8258;51.020;4.248;2022-07-22T03:56:59;12.60;99.90
16301;DHT22;8258;51.020;4.248;2022-07-22T03:59:25;12.60;99.90
16301;DHT22;8258;51.020;4.248;2022-07-22T04:01:52;12.70;99.90
16301;DHT22;8258;51.020;4.248;2022-07-22T04:04:19;12.70;99.90
16301;DHT22;8258;51.020;4.248;2022-07-22T04:06:46;12.70;99.90
16301;DHT22;8258;51.020;4.248;2022-07-22T04:09:13;12.70;99.90
16301;DHT22;8258;51.020;4.248;2022-07-22T04:11:40;12.80;99.90
16301;DHT22;8258;51.020;4.248;2022-07-22T04:14:08;12.80;99.90
16301;DHT22;8258;51.020;4.248;2022-07-22T04:16:35;12.90;99.90
16301;DHT22;8258;51.020;4.248;2022-07-22T04:19:02;12.90;99.90
16301;DHT22;8258;51.020;4.248;2022-07-22T04:21:29;13.00;99.90
16301;DHT22;8258;51.020;4.248;2022-07-22T04:23:56;13.00;99.90
16301;DHT22;8258;51.020;4.248;2022-07-22T04:26:23;12.90;99.90
16301;DHT22;8258;51.020;4.248;2022-07-22T04:28:50;12.90;99.90
16301;DHT22;8258;51.020;4.248;2022-07-22T04:31:19;13.00;99.90
16301;DHT22;8258;51.020;4.248;2022-07-22T04:33:45;13.00;99.90
16301;DHT22;8258;51.020;4.248;2022-07-22T04:36:12;13.10;99.90
16301;DHT22;8258;51.020;4.248;2022-07-22T04:38:39;13.30;99.90
16301;DHT22;8258;51.020;4.248;2022-07-22T04:41:06;13.50;99.90
16301;DHT22;8258;51.020;4.248;2022-07-22T04:43:33;13.60;99.90
16301;DHT22;8258;51.020;4.248;2022-07-22T04:46:00;13.70;99.90
16301;DHT22;8258;51.020;4.248;2022-07-22T04:48:28;13.80;99.90
16301;DHT22;8258;51.020;4.248;2022-07-22T04:50:58;14.00;99.90
16301;DHT22;8258;51.020;4.248;2022-07-22T04:53:25;14.20;99.90
16301;DHT22;8258;51.020;4.248;2022-07-22T04:55:52;14.40;99.90
16301;DHT22;8258;51.020;4.248;2022-07-22T04:58:19;14.50;99.90
16301;DHT22;8258;51.020;4.248;2022-07-22T05:00:46;14.70;99.90
16301;DHT22;8258;51.020;4.248;2022-07-22T05:03:14;14.80;99.90
16301;DHT22;8258;51.020;4.248;2022-07-22T05:05:42;15.10;99.90
16301;DHT22;8258;51.020;4.248;2022-07-22T05:08:09;15.20;99.90
16301;DHT22;8258;51.020;4.248;2022-07-22T05:10:36;15.20;99.90
16301;DHT22;8258;51.020;4.248;2022-07-22T05:13:02;15.40;99.90
16301;DHT22;8258;51.020;4.248;2022-07-22T05:15:29;15.50;99.90
16301;DHT22;8258;51.020;4.248;2022-07-22T05:17:56;15.70;99.90
16301;DHT22;8258;51.020;4.248;2022-07-22T05:20:23;15.80;99.90
16301;DHT22;8258;51.020;4.248;2022-07-22T05:22:52;15.70;99.90
16301;DHT22;8258;51.020;4.248;2022-07-22T05:25:19;15.70;99.90
16301;DHT22;8258;51.020;4.248;2022-07-22T05:27:55;15.80;99.90
16301;DHT22;8258;51.020;4.248;2022-07-22T05:30:22;15.90;99.90
16301;DHT22;8258;51.020;4.248;2022-07-22T05:32:49;16.00;99.90
16301;DHT22;8258;51.020;4.248;2022-07-22T05:35:16;16.20;99.90
16301;DHT22;8258;51.020;4.248;2022-07-22T05:37:43;16.20;99.90
16301;DHT22;8258;51.020;4.248;2022-07-22T05:40:11;16.40;99.90
16301;DHT22;8258;51.020;4.248;2022-07-22T05:42:39;16.70;99.90
16301;DHT22;8258;51.020;4.248;2022-07-22T05:45:06;16.80;99.90
16301;DHT22;8258;51.020;4.248;2022-07-22T05:47:33;17.00;99.90
16301;DHT22;8258;51.020;4.248;2022-07-22T05:50:00;17.30;99.90
16301;DHT22;8258;51.020;4.248;2022-07-22T05:52:27;17.40;99.90
16301;DHT22;8258;51.020;4.248;2022-07-22T05:54:54;17.50;99.90
16301;DHT22;8258;51.020;4.248;2022-07-22T05:57:22;17.50;99.90
16301;DHT22;8258;51.020;4.248;2022-07-22T05:59:49;17.60;99.90
16301;DHT22;8258;51.020;4.248;2022-07-22T06:02:16;17.60;99.90
16301;DHT22;8258;51.020;4.248;2022-07-22T06:04:43;17.70;99.90
16301;DHT22;8258;51.020;4.248;2022-07-22T06:07:09;17.70;99.90
16301;DHT22;8258;51.020;4.248;2022-07-22T06:09:36;17.70;99.90
16301;DHT22;8258;51.020;4.248;2022-07-22T06:12:04;17.70;99.90
16301;DHT22;8258;51.020;4.248;2022-07-22T06:14:33;17.70;99.90
16301;DHT22;8258;51.020;4.248;2022-07-22T06:17:02;17.60;99.90
16301;DHT22;8258;51.020;4.248;2022-07-22T06:19:29;17.60;99.90
16301;DHT22;8258;51.020;4.248;2022-07-22T06:21:56;17.70;99.90
16301;DHT22;8258;51.020;4.248;2022-07-22T06:24:23;17.60;99.90
16301;DHT22;8258;51.020;4.248;2022-07-22T06:26:50;17.60;99.90
16301;DHT22;8258;51.020;4.248;2022-07-22T06:29:16;17.70;99.90
16301;DHT22;8258;51.020;4.248;2022-07-22T06:31:45;17.90;99.90
16301;DHT22;8258;51.020;4.248;2022-07-22T06:34:12;18.00;99.90
16301;DHT22;8258;51.020;4.248;2022-07-22T06:36:38;18.20;99.90
16301;DHT22;8258;51.020;4.248;2022-07-22T06:39:05;18.20;99.90
16301;DHT22;8258;51.020;4.248;2022-07-22T06:41:32;18.40;99.90
16301;DHT22;8258;51.020;4.248;2022-07-22T06:43:59;18.70;99.90
16301;DHT22;8258;51.020;4.248;2022-07-22T06:46:26;18.80;99.90
16301;DHT22;8258;51.020;4.248;2022-07-22T06:48:54;18.90;99.90
16301;DHT22;8258;51.020;4.248;2022-07-22T06:51:21;18.80;99.90
16301;DHT22;8258;51.020;4.248;2022-07-22T06:53:48;18.80;99.90
16301;DHT22;8258;51.020;4.248;2022-07-22T06:56:20;18.50;99.90
16301;DHT22;8258;51.020;4.248;2022-07-22T06:58:47;18.40;99.90
16301;DHT22;8258;51.020;4.248;2022-07-22T07:01:14;18.50;99.90
16301;DHT22;8258;51.020;4.248;2022-07-22T07:03:41;18.50;99.90
16301;DHT22;8258;51.020;4.248;2022-07-22T07:06:10;18.80;99.90
16301;DHT22;8258;51.020;4.248;2022-07-22T07:08:38;19.20;99.90
16301;DHT22;8258;51.020;4.248;2022-07-22T07:11:05;19.50;99.90
16301;DHT22;8258;51.020;4.248;2022-07-22T07:13:32;19.70;99.90
16301;DHT22;8258;51.020;4.248;2022-07-22T07:15:59;19.40;99.90
16301;DHT22;8258;51.020;4.248;2022-07-22T07:18:26;19.60;99.90
16301;DHT22;8258;51.020;4.248;2022-07-22T07:20:53;20.20;99.90
16301;DHT22;8258;51.020;4.248;2022-07-22T07:23:22;20.80;99.90
16301;DHT22;8258;51.020;4.248;2022-07-22T07:25:49;21.10;99.90
16301;DHT22;8258;51.020;4.248;2022-07-22T07:28:16;21.70;99.90
16301;DHT22;8258;51.020;4.248;2022-07-22T07:30:43;21.90;99.90
16301;DHT22;8258;51.020;4.248;2022-07-22T07:33:10;22.10;99.90
16301;DHT22;8258;51.020;4.248;2022-07-22T07:35:37;22.00;99.90
16301;DHT22;8258;51.020;4.248;2022-07-22T07:38:04;21.70;99.90
16301;DHT22;8258;51.020;4.248;2022-07-22T07:40:32;21.20;99.90
16301;DHT22;8258;51.020;4.248;2022-07-22T07:42:59;20.90;99.90
16301;DHT22;8258;51.020;4.248;2022-07-22T07:45:26;20.70;99.90
16301;DHT22;8258;51.020;4.248;2022-07-22T07:47:53;21.10;99.90
16301;DHT22;8258;51.020;4.248;2022-07-22T07:50:20;21.40;99.90
16301;DHT22;8258;51.020;4.248;2022-07-22T07:52:47;21.50;99.90
16301;DHT22;8258;51.020;4.248;2022-07-22T07:55:15;21.50;99.90
16301;DHT22;8258;51.020;4.248;2022-07-22T07:57:43;21.40;99.90
16301;DHT22;8258;51.020;4.248;2022-07-22T08:00:15;21.50;99.90
16301;DHT22;8258;51.020;4.248;2022-07-22T08:02:43;21.50;99.90
16301;DHT22;8258;51.020;4.248;2022-07-22T08:05:10;21.40;99.90
16301;DHT22;8258;51.020;4.248;2022-07-22T08:07:37;21.40;99.90
16301;DHT22;8258;51.020;4.248;2022-07-22T08:10:05;21.50;99.90
16301;DHT22;8258;51.020;4.248;2022-07-22T08:12:33;21.70;99.90
16301;DHT22;8258;51.020;4.248;2022-07-22T08:15:01;21.90;99.90
16301;DHT22;8258;51.020;4.248;2022-07-22T08:17:28;22.20;99.90
16301;DHT22;8258;51.020;4.248;2022-07-22T08:19:55;22.00;99.90
16301;DHT22;8258;51.020;4.248;2022-07-22T08:22:22;22.70;99.90
16301;DHT22;8258;51.020;4.248;2022-07-22T08:24:49;23.00;99.90
16301;DHT22;8258;51.020;4.248;2022-07-22T08:27:16;23.40;99.90
16301;DHT22;8258;51.020;4.248;2022-07-22T08:29:43;23.80;99.90
16301;DHT22;8258;51.020;4.248;2022-07-22T08:32:11;24.00;99.90
16301;DHT22;8258;51.020;4.248;2022-07-22T08:34:38;24.20;99.90
16301;DHT22;8258;51.020;4.248;2022-07-22T08:37:05;23.80;99.90
16301;DHT22;8258;51.020;4.248;2022-07-22T08:39:32;23.80;99.90
16301;DHT22;8258;51.020;4.248;2022-07-22T08:42:00;23.40;99.90
16301;DHT22;8258;51.020;4.248;2022-07-22T08:44:30;22.90;99.90
16301;DHT22;8258;51.020;4.248;2022-07-22T08:46:57;23.00;99.90
16301;DHT22;8258;51.020;4.248;2022-07-22T08:49:26;23.40;99.90
16301;DHT22;8258;51.020;4.248;2022-07-22T08:51:53;23.70;99.90
16301;DHT22;8258;51.020;4.248;2022-07-22T08:54:20;23.60;99.90
16301;DHT22;8258;51.020;4.248;2022-07-22T08:56:48;23.30;99.90
16301;DHT22;8258;51.020;4.248;2022-07-22T08:59:15;23.20;99.90
16301;DHT22;8258;51.020;4.248;2022-07-22T09:02:06;23.40;99.90
16301;DHT22;8258;51.020;4.248;2022-07-22T09:04:50;23.10;99.90
16301;DHT22;8258;51.020;4.248;2022-07-22T09:07:24;23.40;99.90
16301;DHT22;8258;51.020;4.248;2022-07-22T09:09:51;23.40;99.90
16301;DHT22;8258;51.020;4.248;2022-07-22T09:12:18;23.20;99.90
16301;DHT22;8258;51.020;4.248;2022-07-22T09:14:47;23.00;99.90
16301;DHT22;8258;51.020;4.248;2022-07-22T09:17:28;22.60;99.90
16301;DHT22;8258;51.020;4.248;2022-07-22T09:19:59;22.60;99.90
16301;DHT22;8258;51.020;4.248;2022-07-22T09:22:33;22.70;99.90
16301;DHT22;8258;51.020;4.248;2022-07-22T09:25:17;22.60;99.90
16301;DHT22;8258;51.020;4.248;2022-07-22T09:27:45;22.60;99.90
16301;DHT22;8258;51.020;4.248;2022-07-22T09:30:13;22.50;99.90
16301;DHT22;8258;51.020;4.248;2022-07-22T09:32:41;22.90;99.90
16301;DHT22;8258;51.020;4.248;2022-07-22T09:35:10;23.20;99.90
16301;DHT22;8258;51.020;4.248;2022-07-22T09:37:37;23.70;99.90
16301;DHT22;8258;51.020;4.248;2022-07-22T09:40:15;25.00;99.90
16301;DHT22;8258;51.020;4.248;2022-07-22T09:42:47;25.50;99.90
16301;DHT22;8258;51.020;4.248;2022-07-22T09:45:14;25.90;99.90
16301;DHT22;8258;51.020;4.248;2022-07-22T09:47:42;25.80;99.90
16301;DHT22;8258;51.020;4.248;2022-07-22T09:50:19;25.90;99.90
16301;DHT22;8258;51.020;4.248;2022-07-22T09:52:47;25.80;99.90
16301;DHT22;8258;51.020;4.248;2022-07-22T09:55:15;25.50;99.90
16301;DHT22;8258;51.020;4.248;2022-07-22T09:57:43;25.40;99.90
16301;DHT22;8258;51.020;4.248;2022-07-22T10:00:11;25.50;99.90
16301;DHT22;8258;51.020;4.248;2022-07-22T10:02:44;26.00;99.90
16301;DHT22;8258;51.020;4.248;2022-07-22T10:05:12;25.90;99.90
16301;DHT22;8258;51.020;4.248;2022-07-22T10:07:41;25.70;99.90
16301;DHT22;8258;51.020;4.248;2022-07-22T10:10:10;25.60;99.90
16301;DHT22;8258;51.020;4.248;2022-07-22T10:12:38;25.50;99.90
16301;DHT22;8258;51.020;4.248;2022-07-22T10:15:06;25.80;99.90
16301;DHT22;8258;51.020;4.248;2022-07-22T10:17:35;26.40;99.90
16301;DHT22;8258;51.020;4.248;2022-07-22T10:20:04;25.90;99.90
16301;DHT22;8258;51.020;4.248;2022-07-22T10:22:53;25.80;99.90
16301;DHT22;8258;51.020;4.248;2022-07-22T10:25:21;26.10;99.90
16301;DHT22;8258;51.020;4.248;2022-07-22T10:27:51;25.10;99.90
16301;DHT22;8258;51.020;4.248;2022-07-22T10:30:19;25.40;99.90
16301;DHT22;8258;51.020;4.248;2022-07-22T10:33:05;25.50;99.90
16301;DHT22;8258;51.020;4.248;2022-07-22T10:35:33;26.00;99.90
16301;DHT22;8258;51.020;4.248;2022-07-22T10:38:06;26.40;99.90
16301;DHT22;8258;51.020;4.248;2022-07-22T10:40:47;26.60;99.90
16301;DHT22;8258;51.020;4.248;2022-07-22T10:43:15;26.80;99.90
16301;DHT22;8258;51.020;4.248;2022-07-22T10:45:45;26.70;99.90
16301;DHT22;8258;51.020;4.248;2022-07-22T10:48:14;26.60;99.90
16301;DHT22;8258;51.020;4.248;2022-07-22T10:50:54;26.70;99.90
16301;DHT22;8258;51.020;4.248;2022-07-22T10:53:25;26.80;99.90
16301;DHT22;8258;51.020;4.248;2022-07-22T10:56:14;26.70;99.90
16301;DHT22;8258;51.020;4.248;2022-07-22T10:58:44;27.40;99.90
16301;DHT22;8258;51.020;4.248;2022-07-22T11:01:14;28.40;99.90
16301;DHT22;8258;51.020;4.248;2022-07-22T11:03:43;28.80;99.90
16301;DHT22;8258;51.020;4.248;2022-07-22T11:06:16;28.80;98.70
16301;DHT22;8258;51.020;4.248;2022-07-22T11:08:46;29.20;97.30
16301;DHT22;8258;51.020;4.248;2022-07-22T11:11:13;29.00;97.20
16301;DHT22;8258;51.020;4.248;2022-07-22T11:13:42;28.50;99.00
16301;DHT22;8258;51.020;4.248;2022-07-22T11:16:20;28.50;98.60
16301;DHT22;8258;51.020;4.248;2022-07-22T11:18:49;28.60;99.10
16301;DHT22;8258;51.020;4.248;2022-07-22T11:21:17;28.40;97.60
16301;DHT22;8258;51.020;4.248;2022-07-22T11:23:48;27.50;98.50
16301;DHT22;8258;51.020;4.248;2022-07-22T11:26:16;27.20;99.90
16301;DHT22;8258;51.020;4.248;2022-07-22T11:28:44;28.00;99.90
16301;DHT22;8258;51.020;4.248;2022-07-22T11:31:14;28.40;99.10
16301;DHT22;8258;51.020;4.248;2022-07-22T11:33:42;28.40;99.30
16301;DHT22;8258;51.020;4.248;2022-07-22T11:36:09;28.70;98.80
16301;DHT22;8258;51.020;4.248;2022-07-22T11:38:40;29.00;97.90
16301;DHT22;8258;51.020;4.248;2022-07-22T11:41:10;28.70;98.80
16301;DHT22;8258;51.020;4.248;2022-07-22T11:43:44;28.30;98.10
16301;DHT22;8258;51.020;4.248;2022-07-22T11:46:11;28.20;98.50
16301;DHT22;8258;51.020;4.248;2022-07-22T11:48:38;28.90;98.50
16301;DHT22;8258;51.020;4.248;2022-07-22T11:51:06;29.00;98.20
16301;DHT22;8258;51.020;4.248;2022-07-22T11:53:35;28.60;99.00
16301;DHT22;8258;51.020;4.248;2022-07-22T11:56:04;28.10;99.40
16301;DHT22;8258;51.020;4.248;2022-07-22T11:58:38;27.90;99.90
16301;DHT22;8258;51.020;4.248;2022-07-22T12:01:06;27.60;98.70
16301;DHT22;8258;51.020;4.248;2022-07-22T12:03:35;27.40;99.90
16301;DHT22;8258;51.020;4.248;2022-07-22T12:06:03;27.30;99.80
16301;DHT22;8258;51.020;4.248;2022-07-22T12:08:31;27.30;99.90
16301;DHT22;8258;51.020;4.248;2022-07-22T12:10:59;27.60;99.90
16301;DHT22;8258;51.020;4.248;2022-07-22T12:13:30;27.50;99.70
16301;DHT22;8258;51.020;4.248;2022-07-22T12:15:58;27.90;99.90
16301;DHT22;8258;51.020;4.248;2022-07-22T12:18:27;28.00;99.10
16301;DHT22;8258;51.020;4.248;2022-07-22T12:20:55;28.30;99.20
16301;DHT22;8258;51.020;4.248;2022-07-22T12:23:24;28.30;99.00
16301;DHT22;8258;51.020;4.248;2022-07-22T12:25:56;28.30;98.80
16301;DHT22;8258;51.020;4.248;2022-07-22T12:28:24;28.70;98.60
16301;DHT22;8258;51.020;4.248;2022-07-22T12:30:53;28.40;98.10
16301;DHT22;8258;51.020;4.248;2022-07-22T12:33:22;28.10;98.70
16301;DHT22;8258;51.020;4.248;2022-07-22T12:36:03;27.00;99.90
16301;DHT22;8258;51.020;4.248;2022-07-22T12:38:30;26.50;99.90
16301;DHT22;8258;51.020;4.248;2022-07-22T12:41:21;26.70;99.90
16301;DHT22;8258;51.020;4.248;2022-07-22T12:43:49;27.10;99.90
16301;DHT22;8258;51.020;4.248;2022-07-22T12:46:17;27.10;99.90
16301;DHT22;8258;51.020;4.248;2022-07-22T12:48:50;27.60;99.90
16301;DHT22;8258;51.020;4.248;2022-07-22T12:51:18;27.80;99.90
16301;DHT22;8258;51.020;4.248;2022-07-22T12:53:45;27.70;99.90
16301;DHT22;8258;51.020;4.248;2022-07-22T12:56:12;28.10;99.90
16301;DHT22;8258;51.020;4.248;2022-07-22T12:58:39;28.60;99.40
16301;DHT22;8258;51.020;4.248;2022-07-22T13:01:08;28.50;98.60
16301;DHT22;8258;51.020;4.248;2022-07-22T13:03:35;28.40;99.00
16301;DHT22;8258;51.020;4.248;2022-07-22T13:06:04;28.20;98.90
16301;DHT22;8258;51.020;4.248;2022-07-22T13:08:32;28.50;98.90
16301;DHT22;8258;51.020;4.248;2022-07-22T13:10:59;28.40;98.90
16301;DHT22;8258;51.020;4.248;2022-07-22T13:13:26;28.10;99.30
16301;DHT22;8258;51.020;4.248;2022-07-22T13:15:54;27.60;99.80
16301;DHT22;8258;51.020;4.248;2022-07-22T13:18:21;27.10;99.90
16301;DHT22;8258;51.020;4.248;2022-07-22T13:20:48;26.80;99.90
16301;DHT22;8258;51.020;4.248;2022-07-22T13:23:16;27.00;99.90
16301;DHT22;8258;51.020;4.248;2022-07-22T13:25:43;27.10;99.90
16301;DHT22;8258;51.020;4.248;2022-07-22T13:28:10;27.30;99.90
16301;DHT22;8258;51.020;4.248;2022-07-22T13:30:37;27.10;99.90
16301;DHT22;8258;51.020;4.248;2022-07-22T13:33:04;27.10;99.90
16301;DHT22;8258;51.020;4.248;2022-07-22T13:35:31;27.20;99.90
16301;DHT22;8258;51.020;4.248;2022-07-22T13:37:58;27.60;99.90
16301;DHT22;8258;51.020;4.248;2022-07-22T13:40:27;27.50;99.80
16301;DHT22;8258;51.020;4.248;2022-07-22T13:42:54;27.40;99.90
16301;DHT22;8258;51.020;4.248;2022-07-22T13:45:21;27.40;99.50
16301;DHT22;8258;51.020;4.248;2022-07-22T13:47:47;27.20;99.90
16301;DHT22;8258;51.020;4.248;2022-07-22T13:50:14;27.40;99.90
16301;DHT22;8258;51.020;4.248;2022-07-22T13:52:41;27.50;99.90
16301;DHT22;8258;51.020;4.248;2022-07-22T13:55:11;27.10;99.90
16301;DHT22;8258;51.020;4.248;2022-07-22T13:57:40;26.70;99.90
16301;DHT22;8258;51.020;4.248;2022-07-22T14:00:09;26.50;99.90
16301;DHT22;8258;51.020;4.248;2022-07-22T14:02:37;26.20;99.90
16301;DHT22;8258;51.020;4.248;2022-07-22T14:05:04;26.20;99.90
16301;DHT22;8258;51.020;4.248;2022-07-22T14:07:31;26.40;99.90
16301;DHT22;8258;51.020;4.248;2022-07-22T14:09:58;26.70;99.90
16301;DHT22;8258;51.020;4.248;2022-07-22T14:12:25;27.10;99.90
16301;DHT22;8258;51.020;4.248;2022-07-22T14:14:53;27.20;99.90
16301;DHT22;8258;51.020;4.248;2022-07-22T14:17:20;27.30;99.90
16301;DHT22;8258;51.020;4.248;2022-07-22T14:19:47;27.50;99.90
16301;DHT22;8258;51.020;4.248;2022-07-22T14:22:14;27.90;99.90
16301;DHT22;8258;51.020;4.248;2022-07-22T14:24:41;28.10;99.90
16301;DHT22;8258;51.020;4.248;2022-07-22T14:27:08;28.50;99.90
16301;DHT22;8258;51.020;4.248;2022-07-22T14:29:35;28.90;98.90
16301;DHT22;8258;51.020;4.248;2022-07-22T14:32:04;28.60;99.40
16301;DHT22;8258;51.020;4.248;2022-07-22T14:34:31;28.70;99.10
16301;DHT22;8258;51.020;4.248;2022-07-22T14:36:58;28.80;99.60
16301;DHT22;8258;51.020;4.248;2022-07-22T14:39:25;29.00;99.20
16301;DHT22;8258;51.020;4.248;2022-07-22T14:41:52;28.90;99.60
16301;DHT22;8258;51.020;4.248;2022-07-22T14:44:19;28.60;98.70
16301;DHT22;8258;51.020;4.248;2022-07-22T14:46:45;28.40;99.50
16301;DHT22;8258;51.020;4.248;2022-07-22T14:49:14;28.20;99.90
16301;DHT22;8258;51.020;4.248;2022-07-22T14:51:41;28.00;99.90
16301;DHT22;8258;51.020;4.248;2022-07-22T14:54:08;27.90;99.90
16301;DHT22;8258;51.020;4.248;2022-07-22T14:56:37;27.40;99.90
16301;DHT22;8258;51.020;4.248;2022-07-22T14:59:04;27.30;99.90
16301;DHT22;8258;51.020;4.248;2022-07-22T15:01:31;26.90;99.90
16301;DHT22;8258;51.020;4.248;2022-07-22T15:03:58;26.70;99.90
16301;DHT22;8258;51.020;4.248;2022-07-22T15:06:26;26.50;99.90
16301;DHT22;8258;51.020;4.248;2022-07-22T15:08:53;26.40;99.90
16301;DHT22;8258;51.020;4.248;2022-07-22T15:11:20;26.30;99.90
16301;DHT22;8258;51.020;4.248;2022-07-22T15:13:47;26.40;99.90
16301;DHT22;8258;51.020;4.248;2022-07-22T15:16:14;26.40;99.90
16301;DHT22;8258;51.020;4.248;2022-07-22T15:18:40;26.10;99.90
16301;DHT22;8258;51.020;4.248;2022-07-22T15:21:07;25.90;99.90
16301;DHT22;8258;51.020;4.248;2022-07-22T15:23:36;25.60;99.90
16301;DHT22;8258;51.020;4.248;2022-07-22T15:26:02;25.40;99.90
16301;DHT22;8258;51.020;4.248;2022-07-22T15:28:30;25.50;99.90
16301;DHT22;8258;51.020;4.248;2022-07-22T15:30:57;25.50;99.90
16301;DHT22;8258;51.020;4.248;2022-07-22T15:33:24;25.40;99.90
16301;DHT22;8258;51.020;4.248;2022-07-22T15:35:51;25.30;99.90
16301;DHT22;8258;51.020;4.248;2022-07-22T15:38:18;25.30;99.90
16301;DHT22;8258;51.020;4.248;2022-07-22T15:40:46;25.20;99.90
16301;DHT22;8258;51.020;4.248;2022-07-22T15:43:13;25.20;99.90
16301;DHT22;8258;51.020;4.248;2022-07-22T15:45:40;25.30;99.90
16301;DHT22;8258;51.020;4.248;2022-07-22T15:48:07;25.20;99.90
16301;DHT22;8258;51.020;4.248;2022-07-22T15:50:34;25.00;99.90